Time;durP1;ratioP1;P1;durP2;ratioP2;P2;SDS_P1;SDS_P2;PMS_P1;PMS_P2;Temp;Humidity;BMP_temperature;BMP_pressure;BME280_temperature;BME280_humidity;BME280_pressure;Samples;Min_cycle;Max_cycle;Signal;HPM_P1;HPM_P2
2024/03/08 00:02:05;;;;;;;18.05;9.40;;;;;;;;;;5047500;28;20084;-49
2024/03/08 00:04:32;;;;;;;18.83;9.77;;;;;;;;;;5046129;28;20053;-51
2024/03/08 00:07:00;;;;;;;18.42;10.88;;;;;;;;;;5050429;28;20045;-49
2024/03/08 00:09:30;;;;;;;17.65;9.10;;;;;;;;;;5052842;28;20041;-54
2024/03/08 00:11:57;;;;;;;17.05;9.25;;;;;;;;;;5057511;28;20506;-51
2024/03/08 00:14:24;;;;;;;18.50;10.32;;;;;;;;;;5051450;28;20045;-51
2024/03/08 00:16:52;;;;;;;17.27;9.15;;;;;;;;;;5054566;28;20057;-53
2024/03/08 00:19:19;;;;;;;17.48;9.60;;;;;;;;;;5059670;28;20044;-54
2024/03/08 00:21:46;;;;;;;18.05;9.25;;;;;;;;;;5053027;28;20576;-50
2024/03/08 00:24:14;;;;;;;17.20;9.13;;;;;;;;;;5056398;28;20048;-50
2024/03/08 00:26:41;;;;;;;15.50;8.55;;;;;;;;;;5058353;28;20057;-65
2024/03/08 00:29:08;;;;;;;19.38;9.88;;;;;;;;;;5055903;28;20049;-49
2024/03/08 00:31:35;;;;;;;18.80;8.70;;;;;;;;;;5064777;28;20049;-51
2024/03/08 00:34:02;;;;;;;17.42;9.50;;;;;;;;;;5057530;28;20055;-53
2024/03/08 00:36:30;;;;;;;16.70;9.52;;;;;;;;;;5056521;28;20041;-52
2024/03/08 00:38:57;;;;;;;17.02;9.65;;;;;;;;;;5058960;28;20041;-50
2024/03/08 00:41:26;;;;;;;15.23;9.05;;;;;;;;;;5056875;28;20052;-54
2024/03/08 00:43:53;;;;;;;17.23;9.25;;;;;;;;;;5055756;28;20041;-49
2024/03/08 00:46:20;;;;;;;18.30;9.40;;;;;;;;;;5053658;28;20063;-49
2024/03/08 00:48:47;;;;;;;18.38;9.75;;;;;;;;;;5056818;28;20060;-52
2024/03/08 00:51:15;;;;;;;18.13;9.48;;;;;;;;;;5055519;28;20103;-50
2024/03/08 00:53:42;;;;;;;17.23;8.98;;;;;;;;;;5051209;28;20131;-48
2024/03/08 00:56:10;;;;;;;16.42;9.82;;;;;;;;;;5054243;28;20049;-50
2024/03/08 00:58:38;;;;;;;19.60;9.32;;;;;;;;;;5062772;28;20095;-49
2024/03/08 01:01:06;;;;;;;18.00;9.60;;;;;;;;;;5053663;28;20048;-51
2024/03/08 01:03:34;;;;;;;17.90;9.95;;;;;;;;;;5045030;28;20046;-53
2024/03/08 01:06:01;;;;;;;16.15;9.10;;;;;;;;;;5041132;28;20128;-52
2024/03/08 01:08:29;;;;;;;17.83;8.70;;;;;;;;;;5053747;28;20053;-55
2024/03/08 01:10:56;;;;;;;17.92;10.07;;;;;;;;;;5056276;28;20037;-49
2024/03/08 01:13:23;;;;;;;20.00;10.23;;;;;;;;;;5054291;28;20059;-48
2024/03/08 01:15:51;;;;;;;17.40;10.02;;;;;;;;;;5053114;28;20048;-50
2024/03/08 01:18:19;;;;;;;16.20;9.55;;;;;;;;;;5059309;28;20428;-52
2024/03/08 01:20:46;;;;;;;16.58;9.63;;;;;;;;;;5052013;28;20052;-51
2024/03/08 01:23:13;;;;;;;19.20;10.35;;;;;;;;;;5052413;28;20057;-49
2024/03/08 01:25:41;;;;;;;19.85;10.60;;;;;;;;;;5051504;28;20048;-54
2024/03/08 01:28:09;;;;;;;18.73;9.55;;;;;;;;;;5052230;28;20055;-51
2024/03/08 01:30:37;;;;;;;17.70;9.80;;;;;;;;;;5051991;28;20420;-52
2024/03/08 01:33:05;;;;;;;17.92;9.90;;;;;;;;;;5051748;28;20110;-50
2024/03/08 01:35:32;;;;;;;19.13;9.85;;;;;;;;;;5051522;28;20049;-49
2024/03/08 01:37:59;;;;;;;17.33;9.65;;;;;;;;;;5051414;28;20053;-48
2024/03/08 01:40:26;;;;;;;18.65;9.85;;;;;;;;;;5051871;28;20049;-49
2024/03/08 01:42:53;;;;;;;16.05;9.27;;;;;;;;;;5051393;28;20045;-48
2024/03/08 01:45:20;;;;;;;19.02;9.70;;;;;;;;;;5046939;28;20045;-50
2024/03/08 01:47:48;;;;;;;16.63;9.38;;;;;;;;;;5049952;28;20436;-48
2024/03/08 01:50:16;;;;;;;17.25;9.30;;;;;;;;;;5048901;28;20473;-49
2024/03/08 01:52:44;;;;;;;17.08;9.00;;;;;;;;;;5051690;28;20145;-50
2024/03/08 01:55:11;;;;;;;18.13;9.60;;;;;;;;;;5047786;28;20484;-51
2024/03/08 01:57:38;;;;;;;16.00;9.05;;;;;;;;;;5050977;28;20044;-50
2024/03/08 02:00:10;;;;;;;20.58;10.00;;;;;;;;;;5047983;28;20135;-49
2024/03/08 02:02:38;;;;;;;21.30;10.55;;;;;;;;;;5045843;28;20041;-54
2024/03/08 02:05:06;;;;;;;15.88;9.32;;;;;;;;;;5047649;28;20500;-54
2024/03/08 02:07:36;;;;;;;17.73;10.38;;;;;;;;;;5052462;28;20084;-53
2024/03/08 02:10:03;;;;;;;20.20;9.38;;;;;;;;;;5049557;28;20664;-50
2024/03/08 02:12:29;;;;;;;16.83;9.30;;;;;;;;;;5052412;28;20409;-52
2024/03/08 02:14:56;;;;;;;18.10;9.32;;;;;;;;;;5050734;28;20179;-51
2024/03/08 02:17:23;;;;;;;18.02;10.00;;;;;;;;;;5051093;28;20130;-53
2024/03/08 02:19:50;;;;;;;18.70;10.10;;;;;;;;;;5048811;28;20051;-50
2024/03/08 02:22:19;;;;;;;17.52;10.68;;;;;;;;;;5051471;28;20052;-53
2024/03/08 02:24:46;;;;;;;18.98;10.57;;;;;;;;;;5051204;28;20483;-51
2024/03/08 02:27:13;;;;;;;17.65;10.95;;;;;;;;;;5050731;28;20049;-49
2024/03/08 02:29:41;;;;;;;19.70;10.75;;;;;;;;;;5051251;28;20056;-53
2024/03/08 02:32:08;;;;;;;21.65;11.20;;;;;;;;;;5051205;28;20049;-49
2024/03/08 02:34:35;;;;;;;21.45;10.52;;;;;;;;;;5050739;28;20128;-49
2024/03/08 02:37:03;;;;;;;18.90;10.75;;;;;;;;;;5042072;28;20044;-50
2024/03/08 02:39:32;;;;;;;19.10;10.30;;;;;;;;;;5051537;28;20042;-49
2024/03/08 02:41:58;;;;;;;18.83;10.75;;;;;;;;;;5047934;28;20091;-53
2024/03/08 02:44:25;;;;;;;20.40;9.60;;;;;;;;;;5048227;28;20481;-54
2024/03/08 02:46:54;;;;;;;18.23;9.60;;;;;;;;;;5050574;28;20052;-51
2024/03/08 02:49:21;;;;;;;18.33;9.95;;;;;;;;;;5049337;28;20554;-51
2024/03/08 02:51:48;;;;;;;19.58;10.68;;;;;;;;;;5044424;28;20416;-53
2024/03/08 02:54:17;;;;;;;18.42;11.13;;;;;;;;;;5050011;28;20049;-54
2024/03/08 02:56:46;;;;;;;20.08;10.60;;;;;;;;;;5050190;28;20147;-53
2024/03/08 02:59:13;;;;;;;21.35;10.55;;;;;;;;;;5049806;28;20267;-51
2024/03/08 03:01:41;;;;;;;24.15;11.07;;;;;;;;;;5042849;28;20515;-53
2024/03/08 03:04:07;;;;;;;17.58;9.95;;;;;;;;;;5051585;28;20385;-51
2024/03/08 03:06:35;;;;;;;19.00;9.63;;;;;;;;;;5047570;28;20098;-50
2024/03/08 03:09:02;;;;;;;21.00;11.57;;;;;;;;;;5050770;28;20077;-51
2024/03/08 03:11:29;;;;;;;19.55;10.57;;;;;;;;;;5048984;28;20045;-51
2024/03/08 03:13:57;;;;;;;19.48;10.57;;;;;;;;;;5049281;28;20049;-49
2024/03/08 03:16:24;;;;;;;21.23;10.85;;;;;;;;;;5048862;28;20493;-54
2024/03/08 03:18:51;;;;;;;21.58;11.45;;;;;;;;;;5047678;28;20041;-53
2024/03/08 03:21:18;;;;;;;20.17;10.45;;;;;;;;;;5050532;28;20041;-51
2024/03/08 03:23:44;;;;;;;21.60;11.93;;;;;;;;;;5050300;28;20076;-51
2024/03/08 03:26:12;;;;;;;20.30;11.00;;;;;;;;;;5053991;28;20060;-49
2024/03/08 03:28:39;;;;;;;20.10;11.77;;;;;;;;;;5054622;28;20530;-49
2024/03/08 03:31:09;;;;;;;19.48;11.25;;;;;;;;;;5054154;28;20128;-57
2024/03/08 03:33:36;;;;;;;20.75;10.88;;;;;;;;;;5049636;28;20049;-51
2024/03/08 03:36:04;;;;;;;19.02;10.68;;;;;;;;;;5045883;28;20048;-50
2024/03/08 03:38:31;;;;;;;18.23;9.98;;;;;;;;;;5047618;28;20048;-54
2024/03/08 03:41:04;;;;;;;21.70;11.50;;;;;;;;;;5054253;28;20053;-49
2024/03/08 03:43:31;;;;;;;21.35;10.45;;;;;;;;;;5051436;28;20120;-51
2024/03/08 03:45:58;;;;;;;20.17;10.82;;;;;;;;;;5048213;28;20121;-52
2024/03/08 03:48:26;;;;;;;21.13;11.23;;;;;;;;;;5054217;28;20049;-50
2024/03/08 03:50:53;;;;;;;18.92;10.52;;;;;;;;;;5053795;28;20366;-51
2024/03/08 03:53:19;;;;;;;20.70;12.00;;;;;;;;;;5053634;28;20052;-51
2024/03/08 03:55:46;;;;;;;20.95;11.02;;;;;;;;;;5052952;28;20056;-52
2024/03/08 03:58:14;;;;;;;20.60;11.02;;;;;;;;;;5054011;28;20489;-51
2024/03/08 04:00:40;;;;;;;22.25;11.63;;;;;;;;;;5053910;28;20148;-52
2024/03/08 04:03:08;;;;;;;18.65;10.25;;;;;;;;;;5047816;28;20052;-49
2024/03/08 04:05:36;;;;;;;22.48;11.43;;;;;;;;;;5050910;28;20052;-50
2024/03/08 04:08:03;;;;;;;17.80;10.20;;;;;;;;;;5053328;28;20053;-51
2024/03/08 04:10:30;;;;;;;22.70;11.35;;;;;;;;;;5050414;28;20089;-50
2024/03/08 04:12:57;;;;;;;20.75;11.00;;;;;;;;;;5053724;28;20037;-52
2024/03/08 04:15:24;;;;;;;22.08;11.88;;;;;;;;;;5053310;28;20136;-53
2024/03/08 04:17:52;;;;;;;21.35;11.27;;;;;;;;;;5054028;28;20085;-54
2024/03/08 04:20:19;;;;;;;20.70;11.73;;;;;;;;;;5053374;28;20139;-52
2024/03/08 04:22:49;;;;;;;21.83;11.77;;;;;;;;;;5053155;28;20056;-49
2024/03/08 04:25:16;;;;;;;22.52;11.32;;;;;;;;;;5053245;28;20076;-49
2024/03/08 04:27:42;;;;;;;24.23;12.85;;;;;;;;;;5052812;28;20060;-51
2024/03/08 04:30:10;;;;;;;25.63;12.68;;;;;;;;;;5052618;28;20057;-50
2024/03/08 04:32:37;;;;;;;23.65;13.52;;;;;;;;;;5047677;28;20041;-50
2024/03/08 04:35:05;;;;;;;21.05;11.98;;;;;;;;;;5050679;28;20056;-51
2024/03/08 04:37:32;;;;;;;22.48;11.88;;;;;;;;;;5053026;28;20052;-50
2024/03/08 04:40:00;;;;;;;22.02;12.43;;;;;;;;;;5052708;28;20060;-52
2024/03/08 04:42:28;;;;;;;25.75;13.18;;;;;;;;;;5051491;28;20041;-49
2024/03/08 04:44:55;;;;;;;24.33;13.00;;;;;;;;;;5053113;28;20479;-50
2024/03/08 04:47:22;;;;;;;23.40;12.65;;;;;;;;;;5052431;28;20056;-51
2024/03/08 04:49:50;;;;;;;23.70;12.38;;;;;;;;;;5052725;28;20056;-50
2024/03/08 04:52:17;;;;;;;25.15;13.93;;;;;;;;;;5044964;28;20107;-53
2024/03/08 04:54:44;;;;;;;26.10;13.35;;;;;;;;;;5051510;28;20490;-49
2024/03/08 04:57:12;;;;;;;26.10;13.77;;;;;;;;;;5051477;28;20731;-49
2024/03/08 04:59:39;;;;;;;25.73;12.93;;;;;;;;;;5052274;28;20420;-51
2024/03/08 05:02:07;;;;;;;22.98;14.38;;;;;;;;;;5050094;28;20579;-51
2024/03/08 05:04:34;;;;;;;29.58;15.23;;;;;;;;;;5057870;28;20421;-53
2024/03/08 05:07:01;;;;;;;29.35;13.65;;;;;;;;;;5051479;28;20159;-50
2024/03/08 05:09:31;;;;;;;25.58;13.70;;;;;;;;;;5046510;28;20423;-50
2024/03/08 05:11:59;;;;;;;25.20;13.88;;;;;;;;;;5051823;28;20037;-53
2024/03/08 05:14:28;;;;;;;25.23;14.07;;;;;;;;;;5050946;28;20440;-51
2024/03/08 05:16:55;;;;;;;28.30;14.18;;;;;;;;;;5051710;28;20044;-49
2024/03/08 05:19:22;;;;;;;28.30;15.38;;;;;;;;;;5052254;28;20099;-50
2024/03/08 05:21:51;;;;;;;28.23;14.60;;;;;;;;;;5051886;28;20041;-53
2024/03/08 05:24:18;;;;;;;26.35;15.07;;;;;;;;;;5049044;28;20135;-49
2024/03/08 05:26:45;;;;;;;30.80;16.52;;;;;;;;;;5052118;28;20049;-50
2024/03/08 05:29:14;;;;;;;28.38;14.98;;;;;;;;;;5052276;28;20057;-51
2024/03/08 05:31:48;;;;;;;26.05;14.90;;;;;;;;;;5051997;28;20045;-52
2024/03/08 05:34:14;;;;;;;30.25;17.02;;;;;;;;;;5048146;28;20060;-48
2024/03/08 05:36:44;;;;;;;28.67;16.05;;;;;;;;;;5050348;28;20461;-52
2024/03/08 05:39:11;;;;;;;28.75;14.63;;;;;;;;;;5051859;28;20062;-53
2024/03/08 05:41:38;;;;;;;28.50;14.57;;;;;;;;;;5051860;28;20467;-50
2024/03/08 05:44:05;;;;;;;28.88;15.10;;;;;;;;;;5050539;28;20056;-53
2024/03/08 05:46:32;;;;;;;31.50;15.15;;;;;;;;;;5048572;28;20114;-51
2024/03/08 05:49:05;;;;;;;27.60;14.32;;;;;;;;;;5050763;28;20055;-50
2024/03/08 05:51:32;;;;;;;25.90;14.35;;;;;;;;;;5047899;28;20124;-50
2024/03/08 05:53:59;;;;;;;27.05;14.18;;;;;;;;;;5051437;28;20053;-49
2024/03/08 05:56:26;;;;;;;34.90;16.23;;;;;;;;;;5049848;28;20041;-52
2024/03/08 05:58:53;;;;;;;27.85;15.25;;;;;;;;;;5050297;28;20056;-51
2024/03/08 06:01:19;;;;;;;30.33;16.75;;;;;;;;;;5051176;28;20049;-51
2024/03/08 06:03:48;;;;;;;30.33;15.93;;;;;;;;;;5050880;28;20064;-53
2024/03/08 06:06:17;;;;;;;31.83;16.20;;;;;;;;;;5051340;28;20056;-49
2024/03/08 06:08:44;;;;;;;30.75;15.25;;;;;;;;;;5051678;28;20574;-52
2024/03/08 06:11:11;;;;;;;33.13;17.02;;;;;;;;;;5051995;28;20385;-50
2024/03/08 06:13:38;;;;;;;29.33;14.23;;;;;;;;;;5050081;28;20076;-49
2024/03/08 06:16:08;;;;;;;31.55;14.73;;;;;;;;;;5051134;28;20055;-50
2024/03/08 06:18:36;;;;;;;30.98;15.40;;;;;;;;;;5050481;28;20416;-49
2024/03/08 06:21:03;;;;;;;29.70;15.45;;;;;;;;;;5044044;28;20493;-50
2024/03/08 06:23:33;;;;;;;30.55;15.88;;;;;;;;;;5050474;28;20053;-49
2024/03/08 06:26:00;;;;;;;29.90;14.50;;;;;;;;;;5051429;28;20060;-50
2024/03/08 06:28:27;;;;;;;34.58;16.50;;;;;;;;;;5048452;28;20412;-49
2024/03/08 06:30:54;;;;;;;31.65;14.38;;;;;;;;;;5050865;28;20049;-50
2024/03/08 06:33:21;;;;;;;30.48;15.38;;;;;;;;;;5050323;28;20044;-50
2024/03/08 06:35:48;;;;;;;32.92;16.48;;;;;;;;;;5050678;28;20064;-52
2024/03/08 06:38:16;;;;;;;31.05;16.38;;;;;;;;;;5046760;28;20063;-49
2024/03/08 06:40:44;;;;;;;29.23;14.88;;;;;;;;;;5051305;28;20049;-50
2024/03/08 06:43:14;;;;;;;28.52;15.18;;;;;;;;;;5050611;28;20128;-53
2024/03/08 06:45:41;;;;;;;29.47;14.97;;;;;;;;;;5047608;28;20052;-50
2024/03/08 06:48:09;;;;;;;29.85;15.02;;;;;;;;;;5049803;28;20079;-49
2024/03/08 06:50:36;;;;;;;34.50;15.93;;;;;;;;;;5048337;28;20048;-50
2024/03/08 06:53:03;;;;;;;30.25;15.32;;;;;;;;;;5039849;28;20148;-50
2024/03/08 06:55:30;;;;;;;31.23;14.38;;;;;;;;;;5049026;28;20079;-50
2024/03/08 06:57:58;;;;;;;28.73;14.13;;;;;;;;;;5051075;28;20064;-51
2024/03/08 07:00:28;;;;;;;26.95;13.80;;;;;;;;;;5049486;28;20467;-53
2024/03/08 07:02:55;;;;;;;28.73;15.48;;;;;;;;;;5055191;28;20639;-52
2024/03/08 07:05:23;;;;;;;29.02;15.50;;;;;;;;;;5054860;28;20049;-52
2024/03/08 07:07:50;;;;;;;30.20;14.90;;;;;;;;;;5052500;28;20107;-49
2024/03/08 07:10:19;;;;;;;30.85;14.65;;;;;;;;;;5054699;28;20057;-51
2024/03/08 07:12:46;;;;;;;31.55;14.13;;;;;;;;;;5054399;28;20045;-49
2024/03/08 07:15:14;;;;;;;29.92;14.27;;;;;;;;;;5054207;28;20081;-53
2024/03/08 07:17:44;;;;;;;31.70;16.10;;;;;;;;;;5062379;28;20456;-49
2024/03/08 07:20:13;;;;;;;27.95;13.32;;;;;;;;;;5060111;28;20119;-52
2024/03/08 07:22:40;;;;;;;29.10;14.57;;;;;;;;;;5054289;28;20048;-52
2024/03/08 07:25:19;;;;;;;28.42;14.20;;;;;;;;;;5055159;28;20049;-52
2024/03/08 07:27:47;;;;;;;31.60;15.27;;;;;;;;;;5054532;28;20411;-53
2024/03/08 07:30:52;;;;;;;25.10;13.98;;;;;;;;;;5055047;28;20132;-50
2024/03/08 07:33:06;;;;;;;32.28;13.77;;;;;;;;;;5050593;28;20053;-48
2024/03/08 07:35:33;;;;;;;26.25;14.32;;;;;;;;;;5057442;28;20488;-53
2024/03/08 07:38:02;;;;;;;28.70;13.95;;;;;;;;;;5052715;28;20420;-50
2024/03/08 07:40:29;;;;;;;32.85;14.30;;;;;;;;;;5058092;28;20084;-50
2024/03/08 07:42:56;;;;;;;29.77;14.00;;;;;;;;;;5053601;28;20045;-51
2024/03/08 07:45:25;;;;;;;26.60;14.32;;;;;;;;;;5059390;28;20423;-50
2024/03/08 07:47:53;;;;;;;25.65;12.68;;;;;;;;;;5055888;28;20059;-54
2024/03/08 07:50:22;;;;;;;30.15;13.95;;;;;;;;;;5058459;28;20049;-51
2024/03/08 07:52:49;;;;;;;31.38;14.43;;;;;;;;;;5054469;28;20055;-51
2024/03/08 07:55:16;;;;;;;27.05;13.65;;;;;;;;;;5052116;28;20056;-50
2024/03/08 07:57:43;;;;;;;32.35;13.68;;;;;;;;;;5050488;28;20060;-51
2024/03/08 08:00:17;;;;;;;27.42;13.15;;;;;;;;;;5053428;28;20481;-51
2024/03/08 08:02:46;;;;;;;24.08;13.18;;;;;;;;;;5052950;28;20037;-50
2024/03/08 08:05:13;;;;;;;29.55;15.55;;;;;;;;;;5050915;28;20579;-52
2024/03/08 08:07:43;;;;;;;27.65;14.18;;;;;;;;;;5049657;28;20049;-52
2024/03/08 08:10:16;;;;;;;30.90;14.77;;;;;;;;;;5052620;28;20573;-50
2024/03/08 08:12:43;;;;;;;31.63;14.60;;;;;;;;;;5050849;28;20481;-52
2024/03/08 08:15:10;;;;;;;25.35;14.10;;;;;;;;;;5050124;28;20048;-49
2024/03/08 08:17:38;;;;;;;27.10;14.10;;;;;;;;;;5048328;28;20055;-49
2024/03/08 08:20:07;;;;;;;27.85;13.98;;;;;;;;;;5049077;28;20061;-52
2024/03/08 08:22:34;;;;;;;30.25;13.70;;;;;;;;;;5058535;28;20056;-51
2024/03/08 08:25:01;;;;;;;26.75;14.00;;;;;;;;;;5048922;28;20045;-52
2024/03/08 08:27:28;;;;;;;29.48;15.43;;;;;;;;;;5060194;28;20466;-50
2024/03/08 08:29:55;;;;;;;25.35;13.82;;;;;;;;;;5052327;28;20598;-51
2024/03/08 08:32:22;;;;;;;24.65;12.77;;;;;;;;;;5052212;28;20684;-52
2024/03/08 08:34:49;;;;;;;25.88;13.80;;;;;;;;;;5047649;28;20049;-52
2024/03/08 08:37:17;;;;;;;26.52;13.80;;;;;;;;;;5043244;28;20052;-51
2024/03/08 08:39:44;;;;;;;26.33;12.82;;;;;;;;;;5049538;28;20637;-52
2024/03/08 08:42:11;;;;;;;29.17;14.18;;;;;;;;;;5048398;28;20547;-51
2024/03/08 08:44:38;;;;;;;27.73;13.90;;;;;;;;;;5049727;28;20063;-49
2024/03/08 08:47:05;;;;;;;28.27;12.95;;;;;;;;;;5051987;28;20056;-53
2024/03/08 08:49:31;;;;;;;26.40;14.75;;;;;;;;;;5046635;28;20417;-53
2024/03/08 08:51:59;;;;;;;28.58;13.52;;;;;;;;;;5048742;28;20068;-52
2024/03/08 08:54:27;;;;;;;27.08;14.35;;;;;;;;;;5053454;28;20478;-50
2024/03/08 08:56:54;;;;;;;26.65;13.45;;;;;;;;;;5049068;28;20044;-50
2024/03/08 08:59:22;;;;;;;27.10;14.73;;;;;;;;;;5057785;28;20045;-50
2024/03/08 09:01:50;;;;;;;29.13;13.52;;;;;;;;;;5052107;28;20045;-56
2024/03/08 09:04:16;;;;;;;29.88;15.23;;;;;;;;;;5053732;28;20045;-52
2024/03/08 09:06:44;;;;;;;29.55;13.50;;;;;;;;;;5057479;28;20067;-51
2024/03/08 09:09:13;;;;;;;32.65;16.25;;;;;;;;;;5053004;28;20049;-52
2024/03/08 09:11:42;;;;;;;29.13;14.68;;;;;;;;;;5052252;28;20048;-51
2024/03/08 09:14:09;;;;;;;27.65;13.65;;;;;;;;;;5051439;28;20099;-49
2024/03/08 09:16:36;;;;;;;29.67;15.35;;;;;;;;;;5047443;28;20682;-53
2024/03/08 09:19:03;;;;;;;25.33;14.15;;;;;;;;;;5049525;28;20045;-53
2024/03/08 09:21:31;;;;;;;27.52;14.05;;;;;;;;;;5049226;28;20045;-54
2024/03/08 09:23:58;;;;;;;24.88;13.60;;;;;;;;;;5044981;28;20960;-49
2024/03/08 09:26:25;;;;;;;29.77;15.07;;;;;;;;;;5045319;28;20381;-52
2024/03/08 09:28:54;;;;;;;29.85;14.20;;;;;;;;;;5051125;28;20048;-53
2024/03/08 09:31:21;;;;;;;31.95;15.63;;;;;;;;;;5055440;28;20053;-55
2024/03/08 09:33:48;;;;;;;29.58;15.52;;;;;;;;;;5047403;28;20090;-51
2024/03/08 09:36:15;;;;;;;28.20;14.85;;;;;;;;;;5049509;28;20053;-50
2024/03/08 09:38:41;;;;;;;30.25;16.67;;;;;;;;;;5053564;28;20140;-50
2024/03/08 09:41:09;;;;;;;30.00;15.45;;;;;;;;;;5053507;28;20466;-54
2024/03/08 09:43:36;;;;;;;26.17;14.57;;;;;;;;;;5053024;28;20049;-63
2024/03/08 09:46:06;;;;;;;28.67;15.75;;;;;;;;;;5058098;28;20468;-49
2024/03/08 09:48:32;;;;;;;29.13;14.80;;;;;;;;;;5054867;28;20130;-61
2024/03/08 09:51:01;;;;;;;27.58;15.05;;;;;;;;;;5052963;28;20134;-62
2024/03/08 09:53:28;;;;;;;28.58;15.32;;;;;;;;;;5056071;28;20041;-62
2024/03/08 09:55:55;;;;;;;26.60;14.40;;;;;;;;;;5050250;28;20052;-55
2024/03/08 09:58:48;;;;;;;27.10;14.35;;;;;;;;;;5053478;28;20048;-62
2024/03/08 10:01:18;;;;;;;24.90;13.15;;;;;;;;;;5055226;28;20044;-54
2024/03/08 10:03:48;;;;;;;30.00;15.05;;;;;;;;;;5052800;28;20037;-51
2024/03/08 10:06:14;;;;;;;28.58;13.98;;;;;;;;;;5056227;28;20049;-54
2024/03/08 10:08:41;;;;;;;29.48;14.82;;;;;;;;;;5053917;28;20052;-53
2024/03/08 10:11:08;;;;;;;27.98;14.57;;;;;;;;;;5050040;28;20056;-63
2024/03/08 10:13:36;;;;;;;29.30;14.70;;;;;;;;;;5054869;28;20052;-51
2024/03/08 10:16:02;;;;;;;31.48;15.68;;;;;;;;;;5046804;28;20117;-54
2024/03/08 10:18:31;;;;;;;28.55;15.05;;;;;;;;;;5049322;28;20052;-52
2024/03/08 10:21:05;;;;;;;27.83;13.52;;;;;;;;;;5050884;28;20048;-54
2024/03/08 10:23:33;;;;;;;28.88;13.65;;;;;;;;;;5049924;28;20049;-55
2024/03/08 10:26:10;;;;;;;24.42;12.35;;;;;;;;;;5049201;28;20514;-54
2024/03/08 10:28:37;;;;;;;27.25;12.50;;;;;;;;;;5050492;28;20052;-52
2024/03/08 10:31:05;;;;;;;27.27;12.63;;;;;;;;;;5050157;28;20045;-54
2024/03/08 10:33:34;;;;;;;26.98;12.93;;;;;;;;;;5050182;28;20048;-56
2024/03/08 10:36:03;;;;;;;26.20;13.80;;;;;;;;;;5049167;28;20053;-56
2024/03/08 10:38:33;;;;;;;22.88;13.02;;;;;;;;;;5049814;28;20057;-53
2024/03/08 10:41:01;;;;;;;26.05;14.45;;;;;;;;;;5054248;28;20443;-54
2024/03/08 10:43:37;;;;;;;26.52;13.90;;;;;;;;;;5052805;28;20037;-53
2024/03/08 10:46:15;;;;;;;25.73;13.88;;;;;;;;;;5049557;28;20048;-54
2024/03/08 10:48:46;;;;;;;24.15;13.70;;;;;;;;;;5050091;28;20052;-56
2024/03/08 10:51:13;;;;;;;25.15;13.70;;;;;;;;;;5049840;28;20053;-55
2024/03/08 10:53:41;;;;;;;26.38;14.07;;;;;;;;;;5050012;28;20049;-53
2024/03/08 10:56:09;;;;;;;20.27;12.35;;;;;;;;;;5050207;28;20076;-51
2024/03/08 10:58:38;;;;;;;24.08;12.38;;;;;;;;;;5050260;28;20099;-52
2024/03/08 11:01:06;;;;;;;28.00;14.05;;;;;;;;;;5048445;28;20049;-54
2024/03/08 11:03:48;;;;;;;24.38;13.15;;;;;;;;;;5044991;28;20067;-55
2024/03/08 11:06:17;;;;;;;23.48;12.60;;;;;;;;;;5042736;28;20081;-54
2024/03/08 11:08:45;;;;;;;23.30;13.45;;;;;;;;;;5050032;28;20501;-57
2024/03/08 11:11:34;;;;;;;23.55;12.98;;;;;;;;;;5050130;28;20416;-56
2024/03/08 11:14:02;;;;;;;22.42;12.10;;;;;;;;;;5049844;28;20132;-57
2024/03/08 11:16:43;;;;;;;22.40;11.63;;;;;;;;;;5049337;28;20514;-61
2024/03/08 11:22:07;;;;;;;22.98;12.68;;;;;;;;;;5088013;27;20374;-56
2024/03/08 11:24:44;;;;;;;21.42;11.77;;;;;;;;;;5087345;28;20462;-56
2024/03/08 11:27:12;;;;;;;18.30;10.68;;;;;;;;;;5058710;28;20157;-53
2024/03/08 11:29:40;;;;;;;19.17;10.85;;;;;;;;;;5055575;28;20049;-53
2024/03/08 11:32:12;;;;;;;22.27;12.63;;;;;;;;;;5064652;28;20049;-56
2024/03/08 11:34:43;;;;;;;21.40;11.73;;;;;;;;;;5054621;28;20049;-57
2024/03/08 11:37:14;;;;;;;24.85;12.07;;;;;;;;;;5060075;28;20075;-54
2024/03/08 11:39:46;;;;;;;19.60;11.25;;;;;;;;;;5060462;28;20045;-53
2024/03/08 11:42:13;;;;;;;20.65;10.95;;;;;;;;;;5060537;28;20544;-56
2024/03/08 11:44:44;;;;;;;22.17;11.45;;;;;;;;;;5066111;28;20049;-54
2024/03/08 11:47:11;;;;;;;24.95;11.35;;;;;;;;;;5063466;28;20045;-54
2024/03/08 11:49:38;;;;;;;19.10;11.02;;;;;;;;;;5059723;28;20037;-55
2024/03/08 11:52:05;;;;;;;21.33;11.07;;;;;;;;;;5057240;28;20048;-54
2024/03/08 11:54:34;;;;;;;19.92;10.48;;;;;;;;;;5060250;28;20102;-55
2024/03/08 11:57:01;;;;;;;18.90;11.00;;;;;;;;;;5059930;28;20044;-53
2024/03/08 11:59:30;;;;;;;21.13;11.25;;;;;;;;;;5059281;28;20049;-53
2024/03/08 12:02:03;;;;;;;21.80;10.57;;;;;;;;;;5065473;28;20153;-56
2024/03/08 12:04:30;;;;;;;20.27;11.40;;;;;;;;;;5065795;28;20049;-51
2024/03/08 12:07:00;;;;;;;21.10;10.60;;;;;;;;;;5065396;28;20140;-52
2024/03/08 12:09:27;;;;;;;17.92;10.80;;;;;;;;;;5065867;28;20045;-53
2024/03/08 12:11:56;;;;;;;19.67;10.73;;;;;;;;;;5063562;28;20052;-54
2024/03/08 12:14:24;;;;;;;20.20;11.20;;;;;;;;;;5059709;28;20052;-53
2024/03/08 12:16:52;;;;;;;21.10;11.05;;;;;;;;;;5057315;28;20057;-57
2024/03/08 12:19:19;;;;;;;18.80;10.50;;;;;;;;;;5056558;28;20048;-56
2024/03/08 12:21:48;;;;;;;22.63;11.93;;;;;;;;;;5062633;28;20052;-54
2024/03/08 12:24:19;;;;;;;16.95;9.85;;;;;;;;;;5059604;28;20128;-54
2024/03/08 12:26:48;;;;;;;17.15;9.85;;;;;;;;;;5062196;28;20048;-54
2024/03/08 12:29:27;;;;;;;19.73;11.40;;;;;;;;;;5065236;28;20045;-52
2024/03/08 12:31:55;;;;;;;17.92;10.50;;;;;;;;;;5060768;28;20045;-54
2024/03/08 12:34:22;;;;;;;19.35;10.60;;;;;;;;;;5048585;28;20050;-54
2024/03/08 12:36:51;;;;;;;19.98;11.00;;;;;;;;;;5050872;28;20106;-55
2024/03/08 12:39:22;;;;;;;19.42;10.95;;;;;;;;;;5035813;28;20171;-53
2024/03/08 12:41:49;;;;;;;21.52;11.55;;;;;;;;;;5049784;28;20121;-54
2024/03/08 12:44:16;;;;;;;19.35;11.10;;;;;;;;;;5046783;28;20057;-54
2024/03/08 12:46:45;;;;;;;21.52;12.57;;;;;;;;;;5048548;28;20064;-54
2024/03/08 12:49:12;;;;;;;16.58;10.15;;;;;;;;;;5052004;28;20049;-53
2024/03/08 12:51:39;;;;;;;20.55;10.63;;;;;;;;;;5052140;28;20523;-54
2024/03/08 12:54:08;;;;;;;18.42;10.93;;;;;;;;;;5051652;28;20078;-55
2024/03/08 12:56:37;;;;;;;20.00;11.13;;;;;;;;;;5051517;28;20132;-55
2024/03/08 12:59:05;;;;;;;19.02;10.38;;;;;;;;;;5051674;28;20045;-54
2024/03/08 13:01:33;;;;;;;17.80;10.75;;;;;;;;;;5051962;28;20076;-54
2024/03/08 13:04:02;;;;;;;18.75;9.82;;;;;;;;;;5051897;28;20086;-56
2024/03/08 13:06:30;;;;;;;17.83;10.38;;;;;;;;;;5044580;28;20148;-54
2024/03/08 13:08:58;;;;;;;15.35;9.80;;;;;;;;;;5050709;28;20080;-56
2024/03/08 13:11:25;;;;;;;17.73;11.10;;;;;;;;;;5051460;28;20119;-53
2024/03/08 13:13:52;;;;;;;16.60;10.00;;;;;;;;;;5051317;28;20423;-55
2024/03/08 13:16:19;;;;;;;18.90;11.27;;;;;;;;;;5051395;28;20088;-54
2024/03/08 13:18:48;;;;;;;17.17;9.73;;;;;;;;;;5051348;28;20060;-52
2024/03/08 13:21:19;;;;;;;16.85;9.93;;;;;;;;;;5051228;28;20049;-55
2024/03/08 13:23:49;;;;;;;16.92;10.00;;;;;;;;;;5051181;28;20110;-53
2024/03/08 13:26:16;;;;;;;21.30;11.90;;;;;;;;;;5050774;28;20045;-53
2024/03/08 13:28:43;;;;;;;20.63;10.75;;;;;;;;;;5051175;28;20057;-55
2024/03/08 13:31:11;;;;;;;18.73;10.45;;;;;;;;;;5051213;28;20072;-55
2024/03/08 13:33:39;;;;;;;18.05;11.23;;;;;;;;;;5051102;28;20562;-54
2024/03/08 13:36:14;;;;;;;18.35;10.10;;;;;;;;;;5049725;28;20109;-54
2024/03/08 13:38:46;;;;;;;19.83;11.20;;;;;;;;;;5050795;28;20053;-55
2024/03/08 13:41:14;;;;;;;17.98;10.73;;;;;;;;;;5050905;28;20063;-55
2024/03/08 13:43:41;;;;;;;19.27;11.55;;;;;;;;;;5049889;28;20059;-53
2024/03/08 13:46:10;;;;;;;19.35;9.95;;;;;;;;;;5050389;28;20045;-56
2024/03/08 13:48:37;;;;;;;17.88;11.02;;;;;;;;;;5050676;28;20140;-54
2024/03/08 13:51:05;;;;;;;16.75;10.65;;;;;;;;;;5050444;28;20124;-55
2024/03/08 13:53:32;;;;;;;17.08;11.13;;;;;;;;;;5050569;28;20049;-56
2024/03/08 13:56:00;;;;;;;17.20;10.13;;;;;;;;;;5050217;28;20045;-58
2024/03/08 13:58:27;;;;;;;17.90;11.05;;;;;;;;;;5050634;28;20049;-55
2024/03/08 14:00:55;;;;;;;20.75;11.55;;;;;;;;;;5050494;28;20040;-56
2024/03/08 14:03:23;;;;;;;21.48;11.13;;;;;;;;;;5046002;28;20053;-54
2024/03/08 14:05:50;;;;;;;15.00;9.40;;;;;;;;;;5040649;28;20053;-55
2024/03/08 14:08:17;;;;;;;16.83;10.05;;;;;;;;;;5039880;28;20072;-55
2024/03/08 14:10:46;;;;;;;16.63;10.15;;;;;;;;;;5045054;28;20051;-55
2024/03/08 14:13:16;;;;;;;18.00;10.10;;;;;;;;;;5038631;28;20126;-57
2024/03/08 14:15:44;;;;;;;20.27;11.80;;;;;;;;;;5032873;28;20095;-62
2024/03/08 14:18:12;;;;;;;19.70;10.95;;;;;;;;;;5039107;28;20663;-54
2024/03/08 14:20:39;;;;;;;16.60;10.32;;;;;;;;;;5038250;28;20041;-63
2024/03/08 14:23:07;;;;;;;21.33;10.70;;;;;;;;;;5039403;28;20056;-57
2024/03/08 14:25:34;;;;;;;18.67;10.23;;;;;;;;;;5048374;28;20110;-55
2024/03/08 14:28:06;;;;;;;17.45;10.30;;;;;;;;;;5047942;28;20103;-56